00:30
Airports
History
Links
Donate
Help keep this website running!
PayPal
Bitcoin
Information on this page is community maintained and may be outdated or inaccurate and is intended for reference only or PC simulator navigating.
Always use approved charts for navigating.
ENHV
Honningsvaag Valan
Honningsvaag Valan (ENHV)
Honningsvåg, Finnmark, Norway (9751)
(C)
Lat/Lng:71° 0' 34.94" N / 25° 59' 2.45" E
71.009705 / 25.984013
Elevation:46'ft 14mMSL
ID / ICAO:ENHV
Runways:1
Longest:(08-26) 885.1m 2,904ft Asphalt
Controlled:Yes
Distance To
Airport ID:
Nearby VORs <50NM
Nearby NDBs
METARUpdated 07-24-17 20:50 GMT
Altimeter: 30.15
Visibility: 0.3 statute miles
Wind: 3 knots (030°)
Temp: 8°c 46°f
Humidity: 93.4%

METAR: ENHV 242050Z 03003KT 0500 FG VV002 08/07 Q1021

(Powered by phpweather)
Runway 08 / 26
Dimensions:885.1 x 29.9m 2904' x 98'ft
Surface:Asphalt
Edge Lights:Medium intensity
Runway 08 [A]Runway 26 [B]
Heading:089°TH 269°TH
Lat:
Lng:
71° 0' 34.81"N
25° 58' 18.69"E
71° 0' 35.06"N
25° 59' 46.2"E
ALS:RAILRAIL
User Notes and Comments
Google Map
Nearby Airports
(C) Mehamn 41.4 NM
ENMH E 88°
(C) Hammerfest 57.2 NM
ENHF (WX) WSW 246°
(C) BANAK 69.0 NM
ENNA (WX) SSW 199°
(C) Berlevaag 69.5 NM
ENBV E 97°
(C) BATSFJORD 88.9 NM
ENBS ESE 108°
(C) ALTA 93.5 NM
ENAT (WX) SW 220°
(U) HASVIK 94.7 NM
ENHK WSW 247°
VFR Chart
Flight Planning at SkyVector.com